Time;durP1;ratioP1;P1;durP2;ratioP2;P2;SDS_P1;SDS_P2;PMS_P1;PMS_P2;Temp;Humidity;BMP_temperature;BMP_pressure;BME280_temperature;BME280_humidity;BME280_pressure;Samples;Min_cycle;Max_cycle;Signal;HPM_P1;HPM_P2
2021/01/23 00:00:28;;;;;;;3.83;1.53;;;2.80;99.90;;;;;;5071048;28;20663;-68
2021/01/23 00:02:54;;;;;;;1.93;1.23;;;2.80;99.90;;;;;;5078719;28;20228;-68
2021/01/23 00:05:20;;;;;;;1.30;1.27;;;2.80;99.90;;;;;;5074263;28;20213;-68
2021/01/23 00:07:45;;;;;;;2.27;1.40;;;2.80;99.90;;;;;;5075173;28;20290;-67
2021/01/23 00:10:12;;;;;;;1.67;1.40;;;2.80;99.90;;;;;;5078433;28;20217;-68
2021/01/23 00:12:37;;;;;;;3.70;1.60;;;2.80;99.90;;;;;;5088963;28;20193;-68
2021/01/23 00:15:04;;;;;;;1.33;1.30;;;2.80;99.90;;;;;;5073166;28;20180;-68
2021/01/23 00:17:30;;;;;;;1.40;1.30;;;2.80;99.90;;;;;;5085999;28;20189;-69
2021/01/23 00:19:56;;;;;;;1.80;1.50;;;2.70;99.90;;;;;;5085207;28;20173;-69
2021/01/23 00:22:21;;;;;;;1.70;1.60;;;2.70;99.90;;;;;;5072238;28;20279;-69
2021/01/23 00:24:47;;;;;;;1.70;1.60;;;2.70;99.90;;;;;;5079704;28;20207;-70
2021/01/23 00:27:13;;;;;;;1.50;1.40;;;2.70;99.90;;;;;;5082349;28;20629;-69
2021/01/23 00:29:38;;;;;;;1.20;1.20;;;2.70;99.90;;;;;;5089366;28;20704;-69
2021/01/23 00:32:04;;;;;;;1.27;1.23;;;2.70;99.90;;;;;;5086736;28;20217;-68
2021/01/23 00:34:30;;;;;;;1.00;1.00;;;2.60;99.90;;;;;;5087988;28;20188;-70
2021/01/23 00:36:55;;;;;;;1.20;1.20;;;2.60;99.90;;;;;;5086922;28;20188;-68
2021/01/23 00:39:21;;;;;;;1.30;1.30;;;2.60;99.90;;;;;;5087047;28;20292;-69
2021/01/23 00:41:47;;;;;;;1.67;1.50;;;2.60;99.90;;;;;;5077345;28;20569;-68
2021/01/23 00:44:15;;;;;;;1.30;1.20;;;2.50;99.90;;;;;;5077072;28;20206;-68
2021/01/23 00:46:42;;;;;;;1.20;1.20;;;2.50;99.90;;;;;;5079043;28;20185;-67
2021/01/23 00:49:10;;;;;;;1.60;1.50;;;2.50;99.90;;;;;;5085493;28;20233;-68
2021/01/23 00:51:36;;;;;;;1.40;1.30;;;2.50;99.90;;;;;;5083494;28;20227;-69
2021/01/23 00:54:01;;;;;;;1.60;1.50;;;2.50;99.90;;;;;;5083574;28;20657;-69
2021/01/23 00:56:27;;;;;;;1.67;1.57;;;2.50;99.90;;;;;;5080404;28;20179;-69
2021/01/23 00:58:52;;;;;;;1.60;1.50;;;2.40;99.90;;;;;;5086993;28;20223;-69
2021/01/23 01:01:18;;;;;;;1.80;1.70;;;2.40;99.90;;;;;;5093293;28;20629;-68
2021/01/23 01:03:43;;;;;;;1.80;1.70;;;2.40;99.90;;;;;;5097900;28;20214;-68
2021/01/23 01:06:09;;;;;;;1.83;1.73;;;2.50;99.90;;;;;;5075365;28;20185;-69
2021/01/23 01:08:35;;;;;;;1.70;1.60;;;2.50;99.90;;;;;;5090894;28;20275;-69
2021/01/23 01:11:00;;;;;;;1.90;1.80;;;2.50;99.90;;;;;;5079054;28;20215;-69
2021/01/23 01:13:26;;;;;;;2.70;2.50;;;2.40;99.90;;;;;;5073573;28;20185;-70
2021/01/23 01:15:52;;;;;;;2.23;2.13;;;2.50;99.90;;;;;;5087234;28;20189;-69
2021/01/23 01:18:17;;;;;;;1.93;1.83;;;2.50;99.90;;;;;;5091376;28;20210;-69
2021/01/23 01:20:43;;;;;;;2.50;2.30;;;2.50;99.90;;;;;;5088129;28;20677;-69
2021/01/23 01:23:09;;;;;;;1.90;1.80;;;2.40;99.90;;;;;;5090179;28;20220;-68
2021/01/23 01:25:34;;;;;;;2.10;1.97;;;2.40;99.90;;;;;;5084960;28;20236;-68
2021/01/23 01:28:00;;;;;;;2.20;2.10;;;2.40;99.90;;;;;;5080038;28;20268;-69
2021/01/23 01:30:26;;;;;;;2.70;2.50;;;2.40;99.90;;;;;;5081969;28;20684;-69
2021/01/23 01:32:51;;;;;;;3.37;3.03;;;2.40;99.90;;;;;;5080471;28;20179;-69
2021/01/23 01:35:17;;;;;;;3.20;3.00;;;2.40;99.90;;;;;;5084104;28;20188;-68
2021/01/23 01:37:44;;;;;;;3.50;3.20;;;2.40;99.90;;;;;;5078049;28;20212;-68
2021/01/23 01:40:10;;;;;;;3.93;3.63;;;2.40;99.90;;;;;;5083487;28;20184;-68
2021/01/23 01:42:36;;;;;;;3.43;3.13;;;2.50;99.90;;;;;;5076105;28;20191;-68
2021/01/23 01:45:03;;;;;;;3.97;3.23;;;2.40;99.90;;;;;;5085186;28;20250;-69
2021/01/23 01:47:29;;;;;;;3.40;3.17;;;2.50;99.90;;;;;;5078034;28;20687;-69
2021/01/23 01:49:57;;;;;;;3.67;3.40;;;2.50;99.90;;;;;;5082745;28;20179;-69
2021/01/23 01:52:23;;;;;;;3.80;3.50;;;2.40;99.90;;;;;;5075684;28;20552;-70
2021/01/23 01:54:51;;;;;;;3.80;3.50;;;2.50;99.90;;;;;;5082846;28;20187;-69
2021/01/23 01:57:20;;;;;;;4.10;3.80;;;2.50;99.90;;;;;;5079838;28;20531;-69
2021/01/23 01:59:47;;;;;;;4.03;3.60;;;2.60;99.90;;;;;;5079488;28;20215;-69
2021/01/23 02:02:30;;;;;;;3.90;3.60;;;2.60;99.90;;;;;;5085430;28;20196;-69
2021/01/23 02:05:07;;;;;;;3.27;3.07;;;2.60;99.90;;;;;;5073246;28;20209;-68
2021/01/23 02:08:06;;;;;;;3.20;3.00;;;2.60;99.90;;;;;;5083222;28;20541;-68
2021/01/23 02:10:43;;;;;;;2.73;2.57;;;2.50;99.90;;;;;;5080182;28;20179;-68
2021/01/23 02:13:08;;;;;;;3.07;2.87;;;2.50;99.90;;;;;;5075945;28;20677;-67
2021/01/23 02:15:39;;;;;;;2.50;2.40;;;2.50;99.90;;;;;;5077472;28;20263;-68
2021/01/23 02:18:07;;;;;;;2.40;2.20;;;2.50;99.90;;;;;;5082966;28;20207;-67
2021/01/23 02:20:54;;;;;;;2.80;2.60;;;2.50;99.90;;;;;;5083071;28;20226;-68
2021/01/23 02:23:34;;;;;;;2.30;2.20;;;2.50;99.90;;;;;;5083003;28;20216;-68
2021/01/23 02:26:21;;;;;;;2.20;2.10;;;2.50;99.90;;;;;;5084234;28;20189;-68
2021/01/23 02:29:05;;;;;;;1.90;1.80;;;2.50;99.90;;;;;;5077923;28;20305;-68
2021/01/23 02:31:41;;;;;;;1.70;1.60;;;2.50;99.90;;;;;;5087700;28;20247;-68
2021/01/23 02:34:09;;;;;;;2.10;2.00;;;2.50;99.90;;;;;;5073654;28;20210;-68
2021/01/23 02:36:36;;;;;;;1.90;1.80;;;2.50;99.90;;;;;;5082239;28;20191;-68
2021/01/23 02:39:03;;;;;;;1.50;1.40;;;2.50;99.90;;;;;;5076675;28;20263;-67
2021/01/23 02:41:30;;;;;;;1.97;1.87;;;2.60;99.90;;;;;;5071374;28;20197;-68
2021/01/23 02:43:55;;;;;;;2.20;2.10;;;2.60;99.90;;;;;;5088822;28;20212;-68
2021/01/23 02:46:21;;;;;;;2.10;2.00;;;2.60;99.90;;;;;;5084340;28;20198;-68
2021/01/23 02:48:50;;;;;;;2.20;2.10;;;2.50;99.90;;;;;;5078851;28;20201;-68
2021/01/23 02:51:42;;;;;;;2.73;2.30;;;2.60;99.90;;;;;;5080342;28;20275;-68
2021/01/23 02:54:49;;;;;;;2.30;2.20;;;2.50;99.90;;;;;;5076420;28;20182;-69
2021/01/23 02:57:18;;;;;;;2.33;2.23;;;2.50;99.90;;;;;;5076494;28;20629;-68
2021/01/23 02:59:45;;;;;;;2.10;2.00;;;2.50;99.90;;;;;;5083321;28;20205;-67
2021/01/23 03:02:14;;;;;;;2.27;2.17;;;2.50;99.90;;;;;;5088583;28;20271;-68
2021/01/23 03:04:41;;;;;;;2.27;2.10;;;2.60;99.90;;;;;;5083550;28;20686;-68
2021/01/23 03:07:07;;;;;;;2.10;2.00;;;2.60;99.90;;;;;;5084502;28;20192;-68
2021/01/23 03:09:34;;;;;;;1.70;1.60;;;2.60;99.90;;;;;;5084242;28;20209;-69
2021/01/23 03:12:00;;;;;;;1.73;1.63;;;2.50;99.90;;;;;;5081068;28;20215;-68
2021/01/23 03:14:25;;;;;;;1.80;1.70;;;2.50;99.90;;;;;;5080816;28;20185;-69
2021/01/23 03:16:53;;;;;;;1.80;1.70;;;2.50;99.90;;;;;;5086254;28;20186;-69
2021/01/23 03:19:20;;;;;;;2.07;1.90;;;2.40;99.90;;;;;;5081579;28;20615;-68
2021/01/23 03:21:47;;;;;;;2.07;1.97;;;2.50;99.90;;;;;;5079438;28;20622;-69
2021/01/23 03:24:16;;;;;;;1.83;1.73;;;2.40;99.90;;;;;;5084789;28;20544;-68
2021/01/23 03:26:42;;;;;;;1.90;1.80;;;2.40;99.90;;;;;;5076782;28;20179;-68
2021/01/23 03:29:08;;;;;;;1.90;1.80;;;2.40;99.90;;;;;;5084813;28;20203;-68
2021/01/23 03:31:34;;;;;;;2.10;2.00;;;2.40;99.90;;;;;;5078212;28;20522;-68
2021/01/23 03:34:00;;;;;;;2.10;2.00;;;2.40;99.90;;;;;;5082348;28;20215;-68
2021/01/23 03:36:26;;;;;;;2.13;2.03;;;2.30;99.90;;;;;;5083185;28;20234;-68
2021/01/23 03:38:52;;;;;;;2.47;2.30;;;2.30;99.90;;;;;;5081353;28;20295;-67
2021/01/23 03:41:18;;;;;;;2.60;2.40;;;2.30;99.90;;;;;;5071277;28;20261;-69
2021/01/23 03:43:44;;;;;;;2.67;2.47;;;2.30;99.90;;;;;;5075893;28;20356;-69
2021/01/23 03:46:10;;;;;;;2.70;2.50;;;2.30;99.90;;;;;;5086376;28;20710;-68
2021/01/23 03:48:36;;;;;;;2.90;2.70;;;2.20;99.90;;;;;;5075057;28;20814;-68
2021/01/23 03:51:03;;;;;;;2.60;2.40;;;2.20;99.90;;;;;;5085270;28;20561;-69
2021/01/23 03:53:28;;;;;;;3.30;2.90;;;2.20;99.90;;;;;;5077874;28;20176;-69
2021/01/23 03:55:54;;;;;;;2.87;2.67;;;2.10;99.90;;;;;;5087519;28;20182;-69
2021/01/23 03:58:20;;;;;;;3.90;2.90;;;2.10;99.90;;;;;;5078748;28;20289;-68
2021/01/23 04:00:46;;;;;;;2.73;2.53;;;2.10;99.90;;;;;;5078951;28;20559;-69
2021/01/23 04:03:12;;;;;;;2.83;2.63;;;2.10;99.90;;;;;;5079982;28;20275;-69
2021/01/23 04:05:38;;;;;;;2.90;2.70;;;2.00;99.90;;;;;;5070559;28;20198;-69
2021/01/23 04:08:04;;;;;;;2.87;2.67;;;2.10;99.90;;;;;;5081506;28;20211;-69
2021/01/23 04:10:30;;;;;;;3.27;3.00;;;2.00;99.90;;;;;;5085262;28;20281;-69
2021/01/23 04:12:55;;;;;;;3.00;2.77;;;2.10;99.90;;;;;;5088204;28;20188;-69
2021/01/23 04:15:22;;;;;;;2.80;2.60;;;2.10;99.90;;;;;;5081403;28;20585;-70
2021/01/23 04:17:48;;;;;;;2.80;2.50;;;2.10;99.90;;;;;;5070287;28;20233;-69
2021/01/23 04:20:14;;;;;;;2.83;2.63;;;2.10;99.90;;;;;;5085871;28;20666;-69
2021/01/23 04:22:39;;;;;;;3.23;2.27;;;2.10;99.90;;;;;;5089288;28;20196;-68
2021/01/23 04:25:06;;;;;;;3.17;2.80;;;2.00;99.90;;;;;;5086370;28;20546;-69
2021/01/23 04:27:32;;;;;;;2.90;2.70;;;2.00;99.90;;;;;;5091683;28;20178;-68
2021/01/23 04:29:57;;;;;;;2.87;2.67;;;2.00;99.90;;;;;;5092138;28;20181;-68
2021/01/23 04:32:23;;;;;;;2.70;2.47;;;2.00;99.90;;;;;;5090956;28;20656;-70
2021/01/23 04:34:49;;;;;;;2.60;2.40;;;2.00;99.90;;;;;;5082131;28;20184;-70
2021/01/23 04:37:14;;;;;;;2.57;2.37;;;2.00;99.90;;;;;;5090863;28;20189;-69
2021/01/23 04:39:40;;;;;;;2.80;2.60;;;2.00;99.90;;;;;;5082211;28;20712;-69
2021/01/23 04:42:07;;;;;;;3.10;2.90;;;2.00;99.90;;;;;;5094722;28;20186;-70
2021/01/23 04:44:34;;;;;;;2.90;2.70;;;2.00;99.90;;;;;;5083919;28;20685;-69
2021/01/23 04:47:01;;;;;;;2.80;2.57;;;2.00;99.90;;;;;;5077825;28;20597;-70
2021/01/23 04:49:27;;;;;;;2.87;2.67;;;2.00;99.90;;;;;;5088836;28;20198;-69
2021/01/23 04:51:53;;;;;;;3.00;2.30;;;2.00;99.90;;;;;;5079748;28;20557;-69
2021/01/23 04:54:19;;;;;;;2.63;2.43;;;2.00;99.90;;;;;;5084629;28;20197;-70
2021/01/23 04:56:44;;;;;;;2.87;2.67;;;2.00;99.90;;;;;;5080489;28;20197;-69
2021/01/23 04:59:10;;;;;;;3.30;3.10;;;2.00;99.90;;;;;;5089491;28;20214;-69
2021/01/23 05:01:36;;;;;;;2.90;2.70;;;2.00;99.90;;;;;;5086805;28;20202;-69
2021/01/23 05:04:02;;;;;;;2.50;2.30;;;2.00;99.90;;;;;;5079527;28;20281;-70
2021/01/23 05:06:29;;;;;;;2.43;2.30;;;2.00;99.90;;;;;;5080313;28;20181;-70
2021/01/23 05:08:56;;;;;;;3.17;2.97;;;2.00;99.90;;;;;;5085527;28;20199;-69
2021/01/23 05:11:22;;;;;;;3.77;2.27;;;2.00;99.90;;;;;;5082691;28;20178;-70
2021/01/23 05:14:07;;;;;;;2.83;2.63;;;2.00;99.90;;;;;;5086125;28;20179;-69
2021/01/23 05:16:32;;;;;;;2.53;2.33;;;2.00;99.90;;;;;;5086858;28;20180;-69
2021/01/23 05:19:01;;;;;;;3.70;2.30;;;2.00;99.90;;;;;;5085973;28;20281;-71
2021/01/23 05:21:30;;;;;;;2.37;2.27;;;2.00;99.90;;;;;;5087986;28;20240;-70
2021/01/23 05:24:12;;;;;;;2.40;2.30;;;2.00;99.90;;;;;;5087541;28;20633;-71
2021/01/23 05:26:39;;;;;;;3.43;2.20;;;2.00;99.90;;;;;;5080430;28;20182;-70
2021/01/23 05:29:22;;;;;;;2.67;2.47;;;2.00;99.90;;;;;;5078827;28;20273;-70
2021/01/23 05:32:15;;;;;;;3.00;2.40;;;2.00;99.90;;;;;;5077453;28;20181;-70
2021/01/23 05:34:41;;;;;;;2.70;2.50;;;1.90;99.90;;;;;;5084165;28;20244;-70
2021/01/23 05:37:06;;;;;;;2.87;2.43;;;1.90;99.90;;;;;;5080421;28;20194;-70
2021/01/23 05:39:49;;;;;;;2.60;2.40;;;1.90;99.90;;;;;;5076571;28;20216;-70
2021/01/23 05:42:18;;;;;;;2.53;2.43;;;1.90;99.90;;;;;;5089707;28;20604;-69
2021/01/23 05:45:07;;;;;;;3.00;2.80;;;1.80;99.90;;;;;;5083419;28;20232;-69
2021/01/23 05:47:33;;;;;;;3.07;2.87;;;1.80;99.90;;;;;;5084585;28;20192;-70
2021/01/23 05:49:58;;;;;;;3.10;2.90;;;1.80;99.90;;;;;;5093533;28;20275;-70
2021/01/23 05:52:24;;;;;;;3.73;2.70;;;1.80;99.90;;;;;;5080719;28;20210;-68
2021/01/23 05:54:50;;;;;;;2.93;2.70;;;1.70;99.90;;;;;;5079159;28;20189;-71
2021/01/23 05:57:15;;;;;;;3.53;3.23;;;1.70;99.90;;;;;;5077345;28;20208;-70
2021/01/23 05:59:42;;;;;;;3.40;3.10;;;1.70;99.90;;;;;;5079490;28;20216;-69
2021/01/23 06:02:13;;;;;;;3.93;3.27;;;1.70;99.90;;;;;;5086933;28;20183;-69
2021/01/23 06:04:42;;;;;;;3.30;3.10;;;1.70;99.90;;;;;;5082336;28;20294;-68
2021/01/23 06:07:31;;;;;;;4.20;2.70;;;1.70;99.90;;;;;;5079712;28;20182;-71
2021/01/23 06:09:56;;;;;;;3.50;3.20;;;1.70;99.90;;;;;;5080161;28;20265;-70
2021/01/23 06:12:31;;;;;;;3.20;2.90;;;1.80;99.90;;;;;;5072774;28;20203;-68
2021/01/23 06:14:57;;;;;;;3.00;2.80;;;1.80;99.90;;;;;;5075356;28;20194;-70
2021/01/23 06:17:48;;;;;;;2.70;2.50;;;1.80;99.90;;;;;;5075417;28;20194;-69
2021/01/23 06:20:41;;;;;;;3.20;3.00;;;1.80;99.90;;;;;;5082343;28;20190;-70
2021/01/23 06:23:08;;;;;;;3.30;2.73;;;1.90;99.90;;;;;;5075123;28;20236;-68
2021/01/23 06:25:54;;;;;;;3.00;2.80;;;1.80;99.90;;;;;;5083214;28;20897;-69
2021/01/23 06:28:25;;;;;;;3.03;2.83;;;1.80;99.90;;;;;;5075057;28;20364;-70
2021/01/23 06:30:52;;;;;;;3.50;3.20;;;1.90;99.90;;;;;;5070651;28;20258;-69
2021/01/23 06:33:23;;;;;;;3.20;2.90;;;1.80;99.90;;;;;;5076527;28;20183;-69
2021/01/23 06:36:10;;;;;;;2.90;2.60;;;1.80;99.90;;;;;;5073817;28;20196;-71
2021/01/23 06:38:37;;;;;;;2.87;2.67;;;1.80;99.90;;;;;;5079349;28;20238;-70
2021/01/23 06:41:24;;;;;;;3.00;2.80;;;1.80;99.90;;;;;;5085314;28;20273;-68
2021/01/23 06:44:17;;;;;;;3.40;3.03;;;1.80;99.90;;;;;;5085677;28;20332;-69
2021/01/23 06:46:50;;;;;;;3.20;3.00;;;1.80;99.90;;;;;;5080450;28;20715;-69
2021/01/23 06:49:16;;;;;;;3.70;3.40;;;1.80;99.90;;;;;;5081780;28;20234;-70
2021/01/23 06:51:43;;;;;;;3.20;2.90;;;1.80;99.90;;;;;;5077664;28;20180;-69
2021/01/23 06:54:16;;;;;;;3.50;3.20;;;1.90;99.90;;;;;;5085392;28;20209;-69
2021/01/23 06:56:53;;;;;;;3.50;3.20;;;1.80;99.90;;;;;;5086496;28;20302;-68
2021/01/23 06:59:22;;;;;;;3.10;2.87;;;1.80;99.90;;;;;;5082576;28;20205;-69
2021/01/23 07:02:00;;;;;;;3.73;3.43;;;1.80;99.90;;;;;;5080920;28;20182;-69
2021/01/23 07:04:27;;;;;;;3.17;2.97;;;1.90;99.90;;;;;;5077138;28;20627;-69
2021/01/23 07:06:54;;;;;;;3.97;3.57;;;1.90;99.90;;;;;;5083334;28;20207;-69
2021/01/23 07:09:20;;;;;;;3.30;3.07;;;1.90;99.90;;;;;;5080438;28;20203;-69
2021/01/23 07:11:45;;;;;;;4.33;3.93;;;1.80;99.90;;;;;;5082771;28;20287;-69
2021/01/23 07:14:11;;;;;;;4.57;4.10;;;1.80;99.90;;;;;;5076461;28;20187;-68
2021/01/23 07:16:38;;;;;;;5.50;4.90;;;1.70;99.90;;;;;;5086976;28;20184;-70
2021/01/23 07:19:06;;;;;;;5.33;4.93;;;1.80;99.90;;;;;;5083897;28;20912;-69
2021/01/23 07:21:39;;;;;;;4.70;4.30;;;1.80;99.90;;;;;;5071557;28;20202;-69
2021/01/23 07:24:07;;;;;;;7.03;5.80;;;1.80;99.90;;;;;;5082683;28;20663;-70
2021/01/23 07:26:34;;;;;;;8.27;7.07;;;1.90;99.90;;;;;;5072799;28;20225;-70
2021/01/23 07:28:59;;;;;;;7.20;6.50;;;1.90;99.90;;;;;;5080492;28;20210;-69
2021/01/23 07:31:30;;;;;;;6.30;5.70;;;1.90;99.90;;;;;;5070946;28;20197;-69
2021/01/23 07:33:57;;;;;;;5.07;4.57;;;1.90;99.90;;;;;;5084552;28;20666;-69
2021/01/23 07:36:43;;;;;;;5.90;5.03;;;2.00;99.90;;;;;;5077289;28;20206;-68
2021/01/23 07:39:17;;;;;;;5.53;4.23;;;2.00;99.90;;;;;;5073844;28;20207;-69
2021/01/23 07:41:54;;;;;;;5.50;5.00;;;2.00;99.90;;;;;;5078215;28;20267;-69
2021/01/23 07:44:23;;;;;;;5.00;4.60;;;2.10;99.90;;;;;;5078429;28;20599;-70
2021/01/23 07:46:49;;;;;;;4.80;4.30;;;2.10;99.90;;;;;;5080452;28;20185;-70
2021/01/23 07:49:22;;;;;;;6.23;4.53;;;2.10;99.90;;;;;;5079458;28;20212;-70
2021/01/23 07:51:48;;;;;;;4.90;4.50;;;2.20;99.90;;;;;;5076600;28;20212;-70
2021/01/23 07:54:14;;;;;;;3.80;3.50;;;2.20;99.90;;;;;;5079113;28;21619;-70
2021/01/23 07:56:52;;;;;;;4.67;3.83;;;2.20;99.90;;;;;;5075512;28;20188;-68
2021/01/23 07:59:18;;;;;;;3.90;3.50;;;2.20;99.90;;;;;;5074512;28;20325;-68
2021/01/23 08:01:44;;;;;;;3.67;3.37;;;2.20;99.90;;;;;;5070930;28;20568;-68
2021/01/23 08:04:33;;;;;;;4.57;3.70;;;2.20;99.90;;;;;;5078274;28;20198;-69
2021/01/23 08:07:29;;;;;;;3.47;3.17;;;2.30;99.90;;;;;;5074168;28;20181;-68
2021/01/23 08:10:09;;;;;;;3.43;3.13;;;2.30;99.90;;;;;;5072080;28;20220;-68
2021/01/23 08:12:35;;;;;;;3.93;3.53;;;2.40;99.90;;;;;;5071227;28;20175;-67
2021/01/23 08:15:02;;;;;;;5.00;3.87;;;2.40;99.90;;;;;;5083084;28;20193;-69
2021/01/23 08:17:37;;;;;;;3.87;3.57;;;2.40;99.90;;;;;;5079592;28;20188;-69
2021/01/23 08:20:05;;;;;;;3.80;3.50;;;2.50;99.90;;;;;;5079435;28;20777;-68
2021/01/23 08:22:30;;;;;;;4.07;3.63;;;2.50;99.90;;;;;;5079767;28;20200;-68
2021/01/23 08:24:56;;;;;;;5.77;3.30;;;2.60;99.90;;;;;;5074745;28;20204;-69
2021/01/23 08:27:22;;;;;;;5.90;3.97;;;2.70;99.90;;;;;;5079289;28;20201;-69
2021/01/23 08:29:49;;;;;;;4.07;3.70;;;2.90;99.90;;;;;;5082804;28;20204;-69
2021/01/23 08:32:16;;;;;;;3.77;3.47;;;3.00;99.90;;;;;;5074724;28;20177;-69
2021/01/23 08:34:42;;;;;;;4.07;3.57;;;3.00;99.90;;;;;;5085017;28;20179;-68
2021/01/23 08:37:09;;;;;;;3.87;3.50;;;3.10;99.90;;;;;;5081282;28;20188;-69
2021/01/23 08:39:45;;;;;;;5.67;3.63;;;3.10;99.90;;;;;;5082664;28;20269;-69
2021/01/23 08:42:11;;;;;;;3.43;3.13;;;3.30;99.80;;;;;;5073244;28;20182;-69
2021/01/23 08:44:37;;;;;;;3.60;3.30;;;3.40;99.50;;;;;;5070455;28;20831;-68
2021/01/23 08:47:03;;;;;;;3.07;2.77;;;3.50;99.00;;;;;;5074599;28;20230;-68
2021/01/23 08:49:30;;;;;;;3.40;3.10;;;3.50;98.90;;;;;;5074087;28;20748;-68
2021/01/23 08:51:56;;;;;;;3.20;2.33;;;3.50;98.70;;;;;;5077298;28;20192;-70
2021/01/23 08:54:22;;;;;;;3.60;3.30;;;3.50;98.60;;;;;;5077698;28;20185;-68
2021/01/23 08:56:48;;;;;;;3.33;2.60;;;3.60;98.90;;;;;;5079283;28;20180;-69
2021/01/23 08:59:13;;;;;;;3.37;2.93;;;3.70;98.60;;;;;;5078703;28;20208;-70
2021/01/23 09:01:40;;;;;;;3.73;2.87;;;3.60;98.40;;;;;;5081943;28;20234;-68
2021/01/23 09:04:08;;;;;;;2.97;2.70;;;3.60;98.50;;;;;;5095902;28;20201;-68
2021/01/23 09:06:34;;;;;;;5.40;3.40;;;3.50;98.40;;;;;;5085144;28;20255;-69
2021/01/23 09:08:59;;;;;;;4.10;3.13;;;3.50;98.70;;;;;;5086614;28;20351;-68
2021/01/23 09:11:25;;;;;;;3.73;2.60;;;3.50;98.70;;;;;;5098113;28;20183;-67
2021/01/23 09:13:52;;;;;;;3.63;2.73;;;3.50;98.50;;;;;;5093928;28;20202;-70
2021/01/23 09:16:18;;;;;;;4.13;2.93;;;3.70;98.10;;;;;;5091786;28;20195;-69
2021/01/23 09:18:43;;;;;;;2.70;2.50;;;3.70;98.00;;;;;;5087203;28;20289;-69
2021/01/23 09:21:09;;;;;;;3.23;2.87;;;4.00;97.30;;;;;;5076967;28;20212;-69
2021/01/23 09:23:34;;;;;;;2.80;2.60;;;4.20;96.70;;;;;;5079339;28;20200;-69
2021/01/23 09:26:03;;;;;;;3.70;3.20;;;4.30;96.10;;;;;;5080163;28;20272;-68
2021/01/23 09:28:30;;;;;;;2.90;2.70;;;4.40;96.30;;;;;;5079255;28;20699;-69
2021/01/23 09:30:56;;;;;;;3.37;2.80;;;4.60;95.60;;;;;;5083253;28;20181;-68
2021/01/23 09:33:21;;;;;;;2.63;2.43;;;4.80;95.60;;;;;;5074895;28;20248;-70
2021/01/23 09:35:47;;;;;;;3.13;2.83;;;5.00;94.50;;;;;;5075478;28;20201;-70
2021/01/23 09:38:12;;;;;;;5.90;2.87;;;5.40;93.60;;;;;;5084307;28;20352;-69
2021/01/23 09:40:39;;;;;;;3.03;2.73;;;5.60;92.90;;;;;;5083659;28;20186;-68
2021/01/23 09:43:05;;;;;;;2.80;2.60;;;6.60;91.30;;;;;;5081713;28;20570;-70
2021/01/23 09:45:30;;;;;;;2.90;2.70;;;7.80;86.50;;;;;;5085979;28;20191;-69
2021/01/23 09:47:57;;;;;;;2.27;2.17;;;8.70;76.90;;;;;;5085208;28;20320;-69
2021/01/23 09:50:22;;;;;;;2.17;1.97;;;9.10;72.50;;;;;;5083839;28;20194;-68
2021/01/23 09:52:49;;;;;;;2.33;2.13;;;9.30;70.80;;;;;;5085188;28;20189;-69
2021/01/23 09:55:15;;;;;;;1.93;1.80;;;9.50;68.70;;;;;;5080942;28;20269;-68
2021/01/23 09:57:41;;;;;;;1.90;1.80;;;9.60;67.50;;;;;;5078686;28;20194;-68
2021/01/23 10:00:08;;;;;;;4.50;1.90;;;9.70;66.20;;;;;;5085854;28;20209;-68
2021/01/23 10:02:35;;;;;;;2.33;2.13;;;9.60;65.80;;;;;;5083817;28;20202;-69
2021/01/23 10:05:02;;;;;;;3.27;1.67;;;9.70;66.10;;;;;;5085492;28;20934;-70
2021/01/23 10:07:27;;;;;;;3.37;2.10;;;10.00;64.90;;;;;;5079346;28;20181;-71
2021/01/23 10:09:54;;;;;;;2.10;2.00;;;10.30;63.70;;;;;;5074055;28;20653;-69
2021/01/23 10:12:19;;;;;;;2.08;1.98;;;10.20;62.20;;;;;;5078222;28;20182;-69
2021/01/23 10:14:45;;;;;;;1.67;1.58;;;10.50;62.60;;;;;;5073908;28;20245;-68
2021/01/23 10:17:11;;;;;;;1.77;1.67;;;10.60;61.10;;;;;;5081115;28;20641;-68
2021/01/23 10:19:37;;;;;;;3.42;2.05;;;10.10;63.30;;;;;;5078212;28;20221;-68
2021/01/23 10:22:03;;;;;;;2.50;2.30;;;10.10;64.10;;;;;;5082406;28;20203;-69
2021/01/23 10:24:29;;;;;;;2.60;2.40;;;9.80;64.50;;;;;;5085007;28;20210;-70
2021/01/23 10:26:54;;;;;;;2.60;2.40;;;9.20;66.70;;;;;;5086173;28;20194;-69
2021/01/23 10:29:20;;;;;;;2.00;1.90;;;8.30;71.70;;;;;;5077415;28;20214;-69
2021/01/23 10:31:46;;;;;;;2.60;2.40;;;7.80;76.00;;;;;;5076822;28;20171;-69
2021/01/23 10:34:11;;;;;;;3.13;2.47;;;7.50;79.10;;;;;;5087767;28;20594;-69
2021/01/23 10:36:37;;;;;;;2.80;2.33;;;7.70;80.00;;;;;;5070840;28;20197;-69
2021/01/23 10:39:03;;;;;;;2.60;2.40;;;7.70;79.60;;;;;;5090117;28;20226;-68
2021/01/23 10:41:29;;;;;;;3.00;2.80;;;7.70;79.70;;;;;;5083782;28;20186;-69
2021/01/23 10:43:54;;;;;;;2.90;2.60;;;7.70;80.20;;;;;;5082229;28;20209;-70
2021/01/23 10:46:20;;;;;;;2.90;2.47;;;7.70;82.00;;;;;;5074857;28;20617;-69
2021/01/23 10:48:45;;;;;;;3.47;2.20;;;8.00;80.90;;;;;;5073415;28;20212;-68
2021/01/23 10:51:11;;;;;;;3.50;2.47;;;8.20;78.20;;;;;;5078432;28;20182;-68
2021/01/23 10:53:37;;;;;;;2.53;2.33;;;8.30;76.90;;;;;;5080809;28;20673;-70
2021/01/23 10:56:03;;;;;;;3.00;2.40;;;8.20;76.30;;;;;;5082844;28;20182;-70
2021/01/23 10:58:29;;;;;;;2.00;1.90;;;8.60;76.10;;;;;;5078226;28;20207;-69
2021/01/23 11:00:55;;;;;;;2.80;2.57;;;8.60;74.00;;;;;;5076003;28;20532;-68
2021/01/23 11:03:20;;;;;;;2.83;2.60;;;8.80;73.60;;;;;;5077458;28;20207;-68
2021/01/23 11:05:46;;;;;;;2.70;2.40;;;8.90;72.30;;;;;;5071338;28;20560;-68
2021/01/23 11:08:12;;;;;;;4.07;2.47;;;8.40;73.00;;;;;;5075713;28;20203;-69
2021/01/23 11:10:38;;;;;;;2.60;2.30;;;8.10;75.40;;;;;;5073196;28;20832;-69
2021/01/23 11:13:04;;;;;;;4.07;2.57;;;8.40;76.20;;;;;;5071820;28;20251;-69
2021/01/23 11:15:29;;;;;;;2.20;2.00;;;9.10;72.60;;;;;;5080816;28;20610;-75
2021/01/23 11:17:55;;;;;;;4.07;2.33;;;9.80;69.00;;;;;;5083390;28;20182;-68
2021/01/23 11:20:21;;;;;;;3.37;2.00;;;9.80;66.60;;;;;;5077021;28;20175;-67
2021/01/23 11:22:47;;;;;;;2.27;2.17;;;9.70;67.60;;;;;;5082666;28;20194;-68
2021/01/23 11:25:15;;;;;;;2.37;2.20;;;10.00;67.30;;;;;;5078451;28;20230;-67
2021/01/23 11:27:42;;;;;;;2.33;2.10;;;9.90;66.80;;;;;;5075549;28;20183;-68
2021/01/23 11:30:10;;;;;;;2.73;2.10;;;10.20;66.60;;;;;;5077747;28;20725;-68
2021/01/23 11:32:37;;;;;;;2.20;2.00;;;10.50;64.80;;;;;;5076056;28;20248;-69
2021/01/23 11:35:03;;;;;;;3.00;2.20;;;10.40;64.10;;;;;;5076151;28;20185;-68
2021/01/23 11:37:29;;;;;;;3.33;2.27;;;10.30;65.60;;;;;;5080642;28;20240;-68
2021/01/23 11:39:55;;;;;;;3.83;2.40;;;9.90;67.40;;;;;;5076915;28;20210;-68
2021/01/23 11:42:20;;;;;;;4.17;2.83;;;9.80;68.30;;;;;;5073264;28;20332;-68
2021/01/23 11:44:46;;;;;;;2.70;2.20;;;10.20;67.40;;;;;;5075094;28;20213;-68
2021/01/23 11:47:13;;;;;;;2.67;2.40;;;11.20;63.70;;;;;;5076089;28;20186;-68
2021/01/23 11:49:38;;;;;;;2.58;2.33;;;12.20;60.20;;;;;;5075494;28;20199;-68
2021/01/23 11:52:04;;;;;;;3.42;2.42;;;12.70;57.40;;;;;;5079621;28;20553;-68
2021/01/23 11:54:31;;;;;;;2.60;2.35;;;12.90;57.80;;;;;;5077314;28;20178;-68
2021/01/23 11:56:57;;;;;;;2.55;2.13;;;12.50;56.00;;;;;;5076881;28;20233;-69
2021/01/23 11:59:22;;;;;;;2.63;2.42;;;12.30;56.30;;;;;;5079411;28;20198;-68
2021/01/23 12:01:49;;;;;;;5.18;4.35;;;12.40;57.10;;;;;;5069973;28;21039;-69
2021/01/23 12:04:15;;;;;;;3.08;2.75;;;12.00;57.00;;;;;;5075539;28;20198;-69
2021/01/23 12:06:40;;;;;;;2.70;2.50;;;11.80;58.10;;;;;;5078092;28;20700;-68
2021/01/23 12:09:06;;;;;;;2.42;2.20;;;11.50;58.30;;;;;;5070851;28;20225;-70
2021/01/23 12:11:32;;;;;;;3.50;2.33;;;11.10;59.30;;;;;;5078465;28;20316;-69
2021/01/23 12:13:58;;;;;;;2.72;2.53;;;10.70;60.20;;;;;;5078038;28;20175;-69
2021/01/23 12:16:24;;;;;;;2.50;2.30;;;10.60;61.30;;;;;;5078975;28;20192;-69
2021/01/23 12:18:50;;;;;;;3.83;3.00;;;10.60;62.20;;;;;;5076996;28;20210;-69
2021/01/23 12:21:15;;;;;;;3.28;2.42;;;10.50;64.50;;;;;;5074652;28;20197;-70
2021/01/23 12:23:41;;;;;;;2.42;2.22;;;10.50;62.90;;;;;;5081428;28;20278;-69
2021/01/23 12:26:06;;;;;;;2.25;2.00;;;10.30;62.50;;;;;;5082684;28;20178;-68
2021/01/23 12:28:32;;;;;;;5.93;2.20;;;9.90;62.90;;;;;;5080549;28;20203;-70
2021/01/23 12:30:58;;;;;;;6.27;3.00;;;9.50;65.70;;;;;;5080118;28;20179;-69
2021/01/23 12:33:24;;;;;;;2.67;2.43;;;9.50;66.70;;;;;;5077632;28;20217;-71
2021/01/23 12:35:49;;;;;;;2.90;2.60;;;9.20;66.70;;;;;;5077988;28;20178;-69
2021/01/23 12:38:15;;;;;;;3.90;2.40;;;8.70;69.70;;;;;;5081867;28;20620;-70
2021/01/23 12:40:40;;;;;;;3.10;2.33;;;8.30;70.70;;;;;;5075660;28;20183;-70
2021/01/23 12:43:06;;;;;;;3.47;2.70;;;8.10;74.80;;;;;;5078132;28;20178;-72
2021/01/23 12:45:32;;;;;;;3.07;2.43;;;8.50;74.30;;;;;;5074705;28;20190;-71
2021/01/23 12:47:57;;;;;;;4.37;3.00;;;8.40;74.70;;;;;;5076264;28;20665;-70
2021/01/23 12:50:23;;;;;;;3.47;2.50;;;8.50;75.90;;;;;;5075436;28;20672;-71
2021/01/23 12:52:48;;;;;;;3.63;2.93;;;8.80;75.30;;;;;;5083427;28;20184;-70
2021/01/23 12:55:15;;;;;;;3.70;3.30;;;8.90;73.50;;;;;;5080258;28;20196;-69
2021/01/23 12:57:40;;;;;;;4.97;2.80;;;8.60;74.60;;;;;;5087831;28;20201;-70
2021/01/23 13:00:11;;;;;;;4.43;2.70;;;8.20;76.80;;;;;;5083005;28;20638;-70